Velilla de San Antonio, Spain
Current Conditions -  °F | °C
As of 12:00 AM on Friday 28 Nov 2014 (Local Time) from LEMD Reporting Station
Broken Clouds Broken Clouds  
Wind Chill: 50°   Ceiling: 7800
Heat Index: 50°   Visibility: 6mi
Dew Point: 43°   Wind: 14mph
Humidity: 76%   Direction: 160°SSE
Pressure: 29.32"   Gusts: NA
Location:  40.37°N, 3.48°W
Report Text: LEMD 272300Z 16012KT 9999 SCT050 BKN078 10/06 Q0993 NOSIG
Loading
Personal Weather Stations






























Interactive Weather Map New forecast layout! Learn more

10-Day Weather Forecast

Advertisements
Track Severe Weather on mobile